sensor_id;sensor_type;location;lat;lon;timestamp;pressure;altitude;pressure_sealevel;temperature
40968;BMP280;57377;45.130;6.038;2023-04-15T00:06:12;91743.56;;;9.84
40968;BMP280;57377;45.130;6.038;2023-04-15T00:08:59;91746.75;;;9.73
40968;BMP280;57377;45.130;6.038;2023-04-15T00:11:25;91743.19;;;9.60
40968;BMP280;57377;45.130;6.038;2023-04-15T00:13:57;91755.50;;;9.25
40968;BMP280;57377;45.130;6.038;2023-04-15T00:16:51;91746.88;;;9.38
40968;BMP280;57377;45.130;6.038;2023-04-15T00:19:37;91739.28;;;9.41
40968;BMP280;57377;45.130;6.038;2023-04-15T00:22:05;91745.84;;;8.96
40968;BMP280;57377;45.130;6.038;2023-04-15T00:25:45;91742.34;;;9.22
40968;BMP280;57377;45.130;6.038;2023-04-15T00:40:10;91755.50;;;9.25
40968;BMP280;57377;45.130;6.038;2023-04-15T00:44:03;91753.44;;;9.14
40968;BMP280;57377;45.130;6.038;2023-04-15T00:47:45;91754.63;;;9.08
40968;BMP280;57377;45.130;6.038;2023-04-15T00:50:32;91744.63;;;9.45
40968;BMP280;57377;45.130;6.038;2023-04-15T00:52:58;91743.41;;;9.72
40968;BMP280;57377;45.130;6.038;2023-04-15T00:55:25;91745.38;;;9.45
40968;BMP280;57377;45.130;6.038;2023-04-15T00:57:51;91746.84;;;9.08
40968;BMP280;57377;45.130;6.038;2023-04-15T01:00:16;91746.69;;;9.34
40968;BMP280;57377;45.130;6.038;2023-04-15T01:02:44;91749.91;;;9.31
40968;BMP280;57377;45.130;6.038;2023-04-15T01:05:19;91744.25;;;9.29
40968;BMP280;57377;45.130;6.038;2023-04-15T01:07:50;91748.34;;;9.30
40968;BMP280;57377;45.130;6.038;2023-04-15T01:10:48;91745.53;;;8.97
40968;BMP280;57377;45.130;6.038;2023-04-15T01:13:44;91752.19;;;9.33
40968;BMP280;57377;45.130;6.038;2023-04-15T01:16:31;91748.44;;;9.47
40968;BMP280;57377;45.130;6.038;2023-04-15T01:19:18;91754.84;;;9.41
40968;BMP280;57377;45.130;6.038;2023-04-15T01:29:22;91742.81;;;8.80
40968;BMP280;57377;45.130;6.038;2023-04-15T01:32:22;91735.31;;;9.44
40968;BMP280;57377;45.130;6.038;2023-04-15T01:37:40;91755.97;;;8.49
40968;BMP280;57377;45.130;6.038;2023-04-15T01:40:46;91747.53;;;8.78
40968;BMP280;57377;45.130;6.038;2023-04-15T01:59:36;91745.41;;;9.24
40968;BMP280;57377;45.130;6.038;2023-04-15T02:02:03;91742.81;;;9.24
40968;BMP280;57377;45.130;6.038;2023-04-15T02:04:31;91740.53;;;9.00
40968;BMP280;57377;45.130;6.038;2023-04-15T02:07:01;91738.56;;;9.27
40968;BMP280;57377;45.130;6.038;2023-04-15T02:09:28;91726.41;;;9.66
40968;BMP280;57377;45.130;6.038;2023-04-15T02:12:02;91721.53;;;9.73
40968;BMP280;57377;45.130;6.038;2023-04-15T03:21:43;91738.44;;;8.32
40968;BMP280;57377;45.130;6.038;2023-04-15T03:39:55;91732.56;;;8.97
40968;BMP280;57377;45.130;6.038;2023-04-15T03:46:15;91727.97;;;8.94
40968;BMP280;57377;45.130;6.038;2023-04-15T03:49:41;91718.84;;;9.27
40968;BMP280;57377;45.130;6.038;2023-04-15T04:03:48;91745.53;;;9.19
40968;BMP280;57377;45.130;6.038;2023-04-15T04:09:08;91730.00;;;9.49
40968;BMP280;57377;45.130;6.038;2023-04-15T04:11:33;91737.94;;;9.52
40968;BMP280;57377;45.130;6.038;2023-04-15T04:14:13;91732.13;;;9.55
40968;BMP280;57377;45.130;6.038;2023-04-15T04:17:08;91741.97;;;8.71
40968;BMP280;57377;45.130;6.038;2023-04-15T04:20:00;91748.84;;;8.89
40968;BMP280;57377;45.130;6.038;2023-04-15T04:22:26;91746.22;;;9.32
40968;BMP280;57377;45.130;6.038;2023-04-15T04:25:25;91753.41;;;9.35
40968;BMP280;57377;45.130;6.038;2023-04-15T04:27:55;91753.91;;;8.94
40968;BMP280;57377;45.130;6.038;2023-04-15T04:30:25;91749.31;;;9.34
40968;BMP280;57377;45.130;6.038;2023-04-15T04:33:23;91757.41;;;8.55
40968;BMP280;57377;45.130;6.038;2023-04-15T04:35:56;91754.91;;;8.85
40968;BMP280;57377;45.130;6.038;2023-04-15T04:41:41;91753.91;;;9.37
40968;BMP280;57377;45.130;6.038;2023-04-15T04:44:42;91752.78;;;9.08
40968;BMP280;57377;45.130;6.038;2023-04-15T04:47:09;91751.53;;;8.63
40968;BMP280;57377;45.130;6.038;2023-04-15T04:49:47;91749.75;;;8.71
40968;BMP280;57377;45.130;6.038;2023-04-15T04:52:13;91750.13;;;8.78
40968;BMP280;57377;45.130;6.038;2023-04-15T04:57:58;91758.38;;;9.24
40968;BMP280;57377;45.130;6.038;2023-04-15T05:03:15;91752.78;;;9.60
40968;BMP280;57377;45.130;6.038;2023-04-15T05:05:42;91756.44;;;8.86
40968;BMP280;57377;45.130;6.038;2023-04-15T05:08:08;91765.94;;;8.55
40968;BMP280;57377;45.130;6.038;2023-04-15T05:10:33;91756.47;;;8.37
40968;BMP280;57377;45.130;6.038;2023-04-15T05:12:58;91761.91;;;8.63
40968;BMP280;57377;45.130;6.038;2023-04-15T05:15:24;91763.03;;;8.57
40968;BMP280;57377;45.130;6.038;2023-04-15T05:17:49;91761.94;;;8.84
40968;BMP280;57377;45.130;6.038;2023-04-15T05:22:50;91762.53;;;9.03
40968;BMP280;57377;45.130;6.038;2023-04-15T05:25:16;91764.06;;;9.04
40968;BMP280;57377;45.130;6.038;2023-04-15T05:27:42;91762.16;;;9.18
40968;BMP280;57377;45.130;6.038;2023-04-15T05:30:07;91769.34;;;9.21
40968;BMP280;57377;45.130;6.038;2023-04-15T05:32:33;91765.63;;;9.35
40968;BMP280;57377;45.130;6.038;2023-04-15T05:34:58;91763.69;;;9.19
40968;BMP280;57377;45.130;6.038;2023-04-15T05:37:24;91763.81;;;9.14
40968;BMP280;57377;45.130;6.038;2023-04-15T05:39:49;91765.44;;;9.10
40968;BMP280;57377;45.130;6.038;2023-04-15T05:44:51;91767.84;;;9.20
40968;BMP280;57377;45.130;6.038;2023-04-15T05:47:17;91771.00;;;8.95
40968;BMP280;57377;45.130;6.038;2023-04-15T05:49:42;91766.75;;;9.21
40968;BMP280;57377;45.130;6.038;2023-04-15T05:52:08;91766.72;;;9.34
40968;BMP280;57377;45.130;6.038;2023-04-15T05:54:33;91771.66;;;8.65
40968;BMP280;57377;45.130;6.038;2023-04-15T05:56:58;91776.53;;;9.02
40968;BMP280;57377;45.130;6.038;2023-04-15T05:59:25;91766.75;;;8.29
40968;BMP280;57377;45.130;6.038;2023-04-15T06:01:51;91765.56;;;8.48
40968;BMP280;57377;45.130;6.038;2023-04-15T06:04:17;91767.66;;;8.60
40968;BMP280;57377;45.130;6.038;2023-04-15T06:06:42;91776.41;;;9.07
40968;BMP280;57377;45.130;6.038;2023-04-15T06:09:07;91772.16;;;8.54
40968;BMP280;57377;45.130;6.038;2023-04-15T06:11:33;91766.63;;;8.82
40968;BMP280;57377;45.130;6.038;2023-04-15T06:13:58;91762.22;;;9.26
40968;BMP280;57377;45.130;6.038;2023-04-15T06:16:46;91775.63;;;8.63
40968;BMP280;57377;45.130;6.038;2023-04-15T06:19:11;91769.28;;;8.91
40968;BMP280;57377;45.130;6.038;2023-04-15T06:21:37;91779.16;;;8.19
40968;BMP280;57377;45.130;6.038;2023-04-15T06:24:05;91770.06;;;9.13
40968;BMP280;57377;45.130;6.038;2023-04-15T06:26:31;91775.59;;;9.41
40968;BMP280;57377;45.130;6.038;2023-04-15T06:28:56;91763.75;;;9.57
40968;BMP280;57377;45.130;6.038;2023-04-15T06:31:21;91768.38;;;9.38
40968;BMP280;57377;45.130;6.038;2023-04-15T06:33:47;91769.44;;;9.59
40968;BMP280;57377;45.130;6.038;2023-04-15T06:36:12;91760.56;;;9.60
40968;BMP280;57377;45.130;6.038;2023-04-15T06:38:38;91767.53;;;9.73
40968;BMP280;57377;45.130;6.038;2023-04-15T06:41:03;91772.06;;;9.16
40968;BMP280;57377;45.130;6.038;2023-04-15T06:43:29;91776.50;;;9.15
40968;BMP280;57377;45.130;6.038;2023-04-15T06:45:55;91772.81;;;9.38
40968;BMP280;57377;45.130;6.038;2023-04-15T06:48:21;91768.50;;;9.33
40968;BMP280;57377;45.130;6.038;2023-04-15T06:50:47;91775.19;;;9.26
40968;BMP280;57377;45.130;6.038;2023-04-15T06:53:13;91777.50;;;9.06
40968;BMP280;57377;45.130;6.038;2023-04-15T06:55:38;91776.78;;;9.14
40968;BMP280;57377;45.130;6.038;2023-04-15T06:58:04;91772.19;;;8.89
40968;BMP280;57377;45.130;6.038;2023-04-15T07:00:30;91770.88;;;9.00
40968;BMP280;57377;45.130;6.038;2023-04-15T07:02:57;91763.56;;;9.24
40968;BMP280;57377;45.130;6.038;2023-04-15T07:05:23;91774.50;;;9.12
40968;BMP280;57377;45.130;6.038;2023-04-15T07:07:49;91773.13;;;9.36
40968;BMP280;57377;45.130;6.038;2023-04-15T07:10:15;91778.06;;;9.46
40968;BMP280;57377;45.130;6.038;2023-04-15T07:12:41;91775.03;;;9.53
40968;BMP280;57377;45.130;6.038;2023-04-15T07:15:06;91785.13;;;9.54
40968;BMP280;57377;45.130;6.038;2023-04-15T07:17:32;91778.53;;;9.48
40968;BMP280;57377;45.130;6.038;2023-04-15T07:19:57;91788.75;;;9.45
40968;BMP280;57377;45.130;6.038;2023-04-15T07:22:23;91788.34;;;9.08
40968;BMP280;57377;45.130;6.038;2023-04-15T07:24:48;91779.75;;;9.21
40968;BMP280;57377;45.130;6.038;2023-04-15T07:27:13;91786.00;;;8.98
40968;BMP280;57377;45.130;6.038;2023-04-15T07:29:39;91784.22;;;9.07
40968;BMP280;57377;45.130;6.038;2023-04-15T07:32:04;91791.09;;;8.90
40968;BMP280;57377;45.130;6.038;2023-04-15T07:34:30;91788.03;;;8.53
40968;BMP280;57377;45.130;6.038;2023-04-15T07:36:55;91794.34;;;9.17
40968;BMP280;57377;45.130;6.038;2023-04-15T07:39:21;91792.19;;;8.75
40968;BMP280;57377;45.130;6.038;2023-04-15T07:41:47;91789.03;;;9.00
40968;BMP280;57377;45.130;6.038;2023-04-15T07:44:13;91805.25;;;8.70
40968;BMP280;57377;45.130;6.038;2023-04-15T07:46:38;91794.56;;;7.84
40968;BMP280;57377;45.130;6.038;2023-04-15T07:49:04;91787.09;;;7.96
40968;BMP280;57377;45.130;6.038;2023-04-15T07:51:29;91797.06;;;8.42
40968;BMP280;57377;45.130;6.038;2023-04-15T07:53:56;91794.56;;;8.85
40968;BMP280;57377;45.130;6.038;2023-04-15T07:56:21;91792.81;;;8.94
40968;BMP280;57377;45.130;6.038;2023-04-15T07:58:47;91784.69;;;9.09
40968;BMP280;57377;45.130;6.038;2023-04-15T08:01:12;91782.84;;;9.09
40968;BMP280;57377;45.130;6.038;2023-04-15T08:03:37;91789.84;;;8.87
40968;BMP280;57377;45.130;6.038;2023-04-15T08:06:03;91785.34;;;8.44
40968;BMP280;57377;45.130;6.038;2023-04-15T08:08:28;91765.59;;;8.35
40968;BMP280;57377;45.130;6.038;2023-04-15T08:10:54;91765.22;;;8.01
40968;BMP280;57377;45.130;6.038;2023-04-15T08:13:19;91758.78;;;8.39
40968;BMP280;57377;45.130;6.038;2023-04-15T08:15:45;91763.72;;;8.62
40968;BMP280;57377;45.130;6.038;2023-04-15T08:18:10;91770.16;;;8.16
40968;BMP280;57377;45.130;6.038;2023-04-15T08:20:36;91781.66;;;8.59
40968;BMP280;57377;45.130;6.038;2023-04-15T08:23:02;91782.41;;;8.72
40968;BMP280;57377;45.130;6.038;2023-04-15T08:25:28;91794.69;;;8.80
40968;BMP280;57377;45.130;6.038;2023-04-15T08:27:54;91793.59;;;9.16
40968;BMP280;57377;45.130;6.038;2023-04-15T08:30:21;91795.91;;;9.18
40968;BMP280;57377;45.130;6.038;2023-04-15T08:32:48;91819.81;;;8.93
40968;BMP280;57377;45.130;6.038;2023-04-15T08:35:13;91817.03;;;9.25
40968;BMP280;57377;45.130;6.038;2023-04-15T08:37:39;91838.88;;;8.75
40968;BMP280;57377;45.130;6.038;2023-04-15T08:40:05;91857.72;;;8.67
40968;BMP280;57377;45.130;6.038;2023-04-15T08:42:36;91866.53;;;8.66
40968;BMP280;57377;45.130;6.038;2023-04-15T08:45:03;91873.53;;;9.14
40968;BMP280;57377;45.130;6.038;2023-04-15T08:47:29;91887.72;;;9.30
40968;BMP280;57377;45.130;6.038;2023-04-15T08:49:56;91884.25;;;8.99
40968;BMP280;57377;45.130;6.038;2023-04-15T08:52:24;91883.03;;;9.19
40968;BMP280;57377;45.130;6.038;2023-04-15T08:54:53;91894.44;;;8.96
40968;BMP280;57377;45.130;6.038;2023-04-15T08:57:19;91891.38;;;8.94
40968;BMP280;57377;45.130;6.038;2023-04-15T08:59:45;91896.38;;;9.26
40968;BMP280;57377;45.130;6.038;2023-04-15T09:02:11;91895.44;;;9.22
40968;BMP280;57377;45.130;6.038;2023-04-15T09:04:36;91890.47;;;9.12
40968;BMP280;57377;45.130;6.038;2023-04-15T09:07:01;91892.00;;;9.13
40968;BMP280;57377;45.130;6.038;2023-04-15T09:09:27;91898.13;;;9.17
40968;BMP280;57377;45.130;6.038;2023-04-15T09:11:53;91893.69;;;9.30
40968;BMP280;57377;45.130;6.038;2023-04-15T09:14:18;91900.59;;;9.35
40968;BMP280;57377;45.130;6.038;2023-04-15T09:17:00;91909.03;;;9.40
40968;BMP280;57377;45.130;6.038;2023-04-15T09:19:26;91915.88;;;9.36
40968;BMP280;57377;45.130;6.038;2023-04-15T09:21:57;91903.69;;;9.24
40968;BMP280;57377;45.130;6.038;2023-04-15T09:24:23;91901.72;;;9.42
40968;BMP280;57377;45.130;6.038;2023-04-15T09:26:53;91902.53;;;8.81
40968;BMP280;57377;45.130;6.038;2023-04-15T09:29:24;91912.56;;;9.23
40968;BMP280;57377;45.130;6.038;2023-04-15T09:31:50;91910.66;;;9.15
40968;BMP280;57377;45.130;6.038;2023-04-15T09:34:16;91899.38;;;8.31
40968;BMP280;57377;45.130;6.038;2023-04-15T09:39:10;91913.19;;;8.93
40968;BMP280;57377;45.130;6.038;2023-04-15T09:41:36;91920.47;;;9.04
40968;BMP280;57377;45.130;6.038;2023-04-15T09:44:01;91903.59;;;8.80
40968;BMP280;57377;45.130;6.038;2023-04-15T09:46:43;91913.78;;;8.24
40968;BMP280;57377;45.130;6.038;2023-04-15T09:49:10;91906.59;;;8.61
40968;BMP280;57377;45.130;6.038;2023-04-15T09:51:36;91900.81;;;8.63
40968;BMP280;57377;45.130;6.038;2023-04-15T09:54:02;91908.41;;;8.47
40968;BMP280;57377;45.130;6.038;2023-04-15T09:56:34;91905.69;;;8.78
40968;BMP280;57377;45.130;6.038;2023-04-15T09:59:01;91905.69;;;8.92
40968;BMP280;57377;45.130;6.038;2023-04-15T10:01:27;91921.03;;;9.01
40968;BMP280;57377;45.130;6.038;2023-04-15T10:03:53;91924.59;;;9.05
40968;BMP280;57377;45.130;6.038;2023-04-15T10:06:19;91920.38;;;8.96
40968;BMP280;57377;45.130;6.038;2023-04-15T10:08:46;91925.09;;;8.94
40968;BMP280;57377;45.130;6.038;2023-04-15T10:11:12;91936.78;;;9.18
40968;BMP280;57377;45.130;6.038;2023-04-15T10:13:38;91924.59;;;8.92
40968;BMP280;57377;45.130;6.038;2023-04-15T10:16:11;91929.31;;;8.63
40968;BMP280;57377;45.130;6.038;2023-04-15T10:18:42;91937.78;;;8.82
40968;BMP280;57377;45.130;6.038;2023-04-15T10:21:08;91928.00;;;8.79
40968;BMP280;57377;45.130;6.038;2023-04-15T10:23:34;91923.28;;;7.97
40968;BMP280;57377;45.130;6.038;2023-04-15T10:25:59;91915.03;;;8.79
40968;BMP280;57377;45.130;6.038;2023-04-15T10:28:25;91919.16;;;8.67
40968;BMP280;57377;45.130;6.038;2023-04-15T10:30:51;91929.78;;;8.12
40968;BMP280;57377;45.130;6.038;2023-04-15T10:33:20;91916.06;;;8.78
40968;BMP280;57377;45.130;6.038;2023-04-15T10:35:49;91913.53;;;9.00
40968;BMP280;57377;45.130;6.038;2023-04-15T10:41:24;91928.91;;;9.10
40968;BMP280;57377;45.130;6.038;2023-04-15T10:46:37;91935.03;;;9.27
40968;BMP280;57377;45.130;6.038;2023-04-15T10:49:13;91953.84;;;9.32
40968;BMP280;57377;45.130;6.038;2023-04-15T10:51:44;91952.78;;;9.33
40968;BMP280;57377;45.130;6.038;2023-04-15T10:54:30;91950.41;;;9.24
40968;BMP280;57377;45.130;6.038;2023-04-15T10:59:37;91952.25;;;9.58
40968;BMP280;57377;45.130;6.038;2023-04-15T11:02:05;91953.13;;;8.92
40968;BMP280;57377;45.130;6.038;2023-04-15T11:07:35;91950.25;;;9.77
40968;BMP280;57377;45.130;6.038;2023-04-15T11:10:01;91957.00;;;9.78
40968;BMP280;57377;45.130;6.038;2023-04-15T11:12:36;91959.28;;;9.93
40968;BMP280;57377;45.130;6.038;2023-04-15T11:15:27;91950.59;;;9.84
40968;BMP280;57377;45.130;6.038;2023-04-15T11:20:34;91945.19;;;9.93
40968;BMP280;57377;45.130;6.038;2023-04-15T11:23:00;91948.16;;;10.00
40968;BMP280;57377;45.130;6.038;2023-04-15T11:25:28;91945.25;;;9.80
40968;BMP280;57377;45.130;6.038;2023-04-15T11:27:54;91945.63;;;9.52
40968;BMP280;57377;45.130;6.038;2023-04-15T11:30:22;91948.72;;;9.89
40968;BMP280;57377;45.130;6.038;2023-04-15T11:32:50;91946.78;;;10.03
40968;BMP280;57377;45.130;6.038;2023-04-15T11:35:16;91947.19;;;9.40
40968;BMP280;57377;45.130;6.038;2023-04-15T11:37:45;91956.63;;;9.71
40968;BMP280;57377;45.130;6.038;2023-04-15T11:40:11;91960.31;;;9.70
40968;BMP280;57377;45.130;6.038;2023-04-15T11:42:37;91958.94;;;9.72
40968;BMP280;57377;45.130;6.038;2023-04-15T11:45:13;91956.03;;;9.74
40968;BMP280;57377;45.130;6.038;2023-04-15T11:47:41;91960.41;;;9.87
40968;BMP280;57377;45.130;6.038;2023-04-15T11:50:22;91964.66;;;9.83
40968;BMP280;57377;45.130;6.038;2023-04-15T11:52:58;91957.59;;;9.75
40968;BMP280;57377;45.130;6.038;2023-04-15T11:55:25;91948.50;;;9.86
40968;BMP280;57377;45.130;6.038;2023-04-15T11:58:06;91942.69;;;10.02
40968;BMP280;57377;45.130;6.038;2023-04-15T12:00:32;91943.88;;;9.83
40968;BMP280;57377;45.130;6.038;2023-04-15T12:03:17;91947.97;;;9.75
40968;BMP280;57377;45.130;6.038;2023-04-15T12:11:12;91939.84;;;9.77
40968;BMP280;57377;45.130;6.038;2023-04-15T12:13:43;91935.94;;;10.01
40968;BMP280;57377;45.130;6.038;2023-04-15T12:16:08;91944.38;;;9.85
40968;BMP280;57377;45.130;6.038;2023-04-15T12:18:36;91940.44;;;9.74
40968;BMP280;57377;45.130;6.038;2023-04-15T12:21:09;91944.16;;;9.59
40968;BMP280;57377;45.130;6.038;2023-04-15T12:23:47;91941.56;;;9.94
40968;BMP280;57377;45.130;6.038;2023-04-15T12:26:13;91941.63;;;10.33
40968;BMP280;57377;45.130;6.038;2023-04-15T12:28:40;91940.47;;;10.17
40968;BMP280;57377;45.130;6.038;2023-04-15T12:31:10;91938.84;;;9.99
40968;BMP280;57377;45.130;6.038;2023-04-15T12:33:35;91943.09;;;9.95
40968;BMP280;57377;45.130;6.038;2023-04-15T12:36:02;91946.19;;;10.06
40968;BMP280;57377;45.130;6.038;2023-04-15T12:38:28;91937.59;;;9.97
40968;BMP280;57377;45.130;6.038;2023-04-15T12:40:54;91942.03;;;9.96
40968;BMP280;57377;45.130;6.038;2023-04-15T12:43:19;91950.75;;;10.00
40968;BMP280;57377;45.130;6.038;2023-04-15T12:45:44;91947.41;;;9.87
40968;BMP280;57377;45.130;6.038;2023-04-15T12:48:10;91958.47;;;10.35
40968;BMP280;57377;45.130;6.038;2023-04-15T12:50:35;91960.66;;;10.20
40968;BMP280;57377;45.130;6.038;2023-04-15T12:53:01;91966.94;;;9.97
40968;BMP280;57377;45.130;6.038;2023-04-15T12:55:27;91966.97;;;10.06
40968;BMP280;57377;45.130;6.038;2023-04-15T12:57:58;91958.13;;;10.28
40968;BMP280;57377;45.130;6.038;2023-04-15T13:01:10;91960.22;;;10.48
40968;BMP280;57377;45.130;6.038;2023-04-15T13:03:36;91965.63;;;10.60
40968;BMP280;57377;45.130;6.038;2023-04-15T13:06:02;91958.59;;;10.60
40968;BMP280;57377;45.130;6.038;2023-04-15T13:08:29;91969.22;;;10.42
40968;BMP280;57377;45.130;6.038;2023-04-15T13:10:54;91965.38;;;10.40
40968;BMP280;57377;45.130;6.038;2023-04-15T13:13:20;91969.16;;;10.34
40968;BMP280;57377;45.130;6.038;2023-04-15T13:15:46;91962.16;;;10.13
40968;BMP280;57377;45.130;6.038;2023-04-15T13:18:12;91971.56;;;10.52
40968;BMP280;57377;45.130;6.038;2023-04-15T13:20:40;91974.06;;;10.65
40968;BMP280;57377;45.130;6.038;2023-04-15T13:23:06;91977.75;;;10.73
40968;BMP280;57377;45.130;6.038;2023-04-15T13:28:23;91965.91;;;10.58
40968;BMP280;57377;45.130;6.038;2023-04-15T13:30:54;91971.53;;;10.82
40968;BMP280;57377;45.130;6.038;2023-04-15T13:33:51;91966.72;;;11.06
40968;BMP280;57377;45.130;6.038;2023-04-15T13:36:38;91972.06;;;11.01
40968;BMP280;57377;45.130;6.038;2023-04-15T13:39:29;91970.75;;;11.12
40968;BMP280;57377;45.130;6.038;2023-04-15T13:42:01;91973.50;;;11.23
40968;BMP280;57377;45.130;6.038;2023-04-15T13:44:34;91980.16;;;10.99
40968;BMP280;57377;45.130;6.038;2023-04-15T13:47:14;91982.53;;;11.18
40968;BMP280;57377;45.130;6.038;2023-04-15T13:49:43;91983.56;;;11.08
40968;BMP280;57377;45.130;6.038;2023-04-15T13:52:09;91982.97;;;11.11
40968;BMP280;57377;45.130;6.038;2023-04-15T13:54:37;91988.69;;;11.21
40968;BMP280;57377;45.130;6.038;2023-04-15T13:57:04;91990.41;;;11.34
40968;BMP280;57377;45.130;6.038;2023-04-15T13:59:58;91985.47;;;11.33
40968;BMP280;57377;45.130;6.038;2023-04-15T14:02:23;91985.75;;;11.15
40968;BMP280;57377;45.130;6.038;2023-04-15T14:20:00;92003.25;;;11.31
40968;BMP280;57377;45.130;6.038;2023-04-15T14:22:25;92006.28;;;11.24
40968;BMP280;57377;45.130;6.038;2023-04-15T14:24:51;92004.53;;;11.42
40968;BMP280;57377;45.130;6.038;2023-04-15T14:27:18;92008.47;;;11.39
40968;BMP280;57377;45.130;6.038;2023-04-15T14:56:41;92021.00;;;10.60
40968;BMP280;57377;45.130;6.038;2023-04-15T14:59:32;92029.38;;;11.09
40968;BMP280;57377;45.130;6.038;2023-04-15T15:07:59;92028.78;;;11.20
40968;BMP280;57377;45.130;6.038;2023-04-15T15:10:24;92038.00;;;10.88
40968;BMP280;57377;45.130;6.038;2023-04-15T15:12:50;92039.75;;;10.71
40968;BMP280;57377;45.130;6.038;2023-04-15T15:15:15;92040.69;;;11.05
40968;BMP280;57377;45.130;6.038;2023-04-15T15:17:40;92033.06;;;11.17
40968;BMP280;57377;45.130;6.038;2023-04-15T15:20:06;92037.13;;;11.39
40968;BMP280;57377;45.130;6.038;2023-04-15T15:22:31;92040.34;;;11.36
40968;BMP280;57377;45.130;6.038;2023-04-15T15:24:57;92053.09;;;11.08
40968;BMP280;57377;45.130;6.038;2023-04-15T15:27:23;92047.25;;;11.02
40968;BMP280;57377;45.130;6.038;2023-04-15T15:29:49;92058.59;;;11.06
40968;BMP280;57377;45.130;6.038;2023-04-15T15:32:14;92063.66;;;11.11
40968;BMP280;57377;45.130;6.038;2023-04-15T15:34:40;92063.72;;;11.20
40968;BMP280;57377;45.130;6.038;2023-04-15T15:37:05;92070.44;;;11.20
40968;BMP280;57377;45.130;6.038;2023-04-15T15:39:51;92075.22;;;10.97
40968;BMP280;57377;45.130;6.038;2023-04-15T15:42:18;92068.75;;;10.86
40968;BMP280;57377;45.130;6.038;2023-04-15T15:44:43;92077.16;;;10.83
40968;BMP280;57377;45.130;6.038;2023-04-15T15:47:08;92069.81;;;10.63
40968;BMP280;57377;45.130;6.038;2023-04-15T15:49:34;92080.34;;;10.58
40968;BMP280;57377;45.130;6.038;2023-04-15T15:51:59;92079.91;;;10.57
40968;BMP280;57377;45.130;6.038;2023-04-15T15:54:25;92079.53;;;10.71
40968;BMP280;57377;45.130;6.038;2023-04-15T15:56:50;92085.09;;;10.78
40968;BMP280;57377;45.130;6.038;2023-04-15T15:59:15;92093.47;;;10.75
40968;BMP280;57377;45.130;6.038;2023-04-15T16:01:42;92099.75;;;10.74
40968;BMP280;57377;45.130;6.038;2023-04-15T16:04:08;92106.31;;;10.72
40968;BMP280;57377;45.130;6.038;2023-04-15T16:06:34;92110.50;;;10.59
40968;BMP280;57377;45.130;6.038;2023-04-15T16:08:59;92114.75;;;10.56
40968;BMP280;57377;45.130;6.038;2023-04-15T16:11:25;92109.06;;;10.75
40968;BMP280;57377;45.130;6.038;2023-04-15T16:13:50;92111.50;;;10.50
40968;BMP280;57377;45.130;6.038;2023-04-15T16:16:16;92127.13;;;10.72
40968;BMP280;57377;45.130;6.038;2023-04-15T16:18:41;92124.88;;;10.79
40968;BMP280;57377;45.130;6.038;2023-04-15T16:21:07;92127.41;;;10.70
40968;BMP280;57377;45.130;6.038;2023-04-15T16:23:32;92132.25;;;10.63
40968;BMP280;57377;45.130;6.038;2023-04-15T16:25:58;92141.97;;;10.71
40968;BMP280;57377;45.130;6.038;2023-04-15T16:28:23;92140.53;;;10.65
40968;BMP280;57377;45.130;6.038;2023-04-15T16:30:48;92149.88;;;10.45
40968;BMP280;57377;45.130;6.038;2023-04-15T16:33:14;92142.09;;;10.66
40968;BMP280;57377;45.130;6.038;2023-04-15T16:35:40;92146.81;;;10.64
40968;BMP280;57377;45.130;6.038;2023-04-15T16:38:05;92153.38;;;10.62
40968;BMP280;57377;45.130;6.038;2023-04-15T16:40:31;92160.66;;;10.73
40968;BMP280;57377;45.130;6.038;2023-04-15T16:42:57;92156.88;;;10.79
40968;BMP280;57377;45.130;6.038;2023-04-15T16:45:23;92165.38;;;10.71
40968;BMP280;57377;45.130;6.038;2023-04-15T16:47:48;92168.31;;;10.57
40968;BMP280;57377;45.130;6.038;2023-04-15T16:50:14;92169.34;;;10.34
40968;BMP280;57377;45.130;6.038;2023-04-15T16:52:39;92169.03;;;10.70
40968;BMP280;57377;45.130;6.038;2023-04-15T16:55:05;92163.88;;;10.57
40968;BMP280;57377;45.130;6.038;2023-04-15T16:57:30;92180.44;;;10.26
40968;BMP280;57377;45.130;6.038;2023-04-15T16:59:56;92191.22;;;10.33
40968;BMP280;57377;45.130;6.038;2023-04-15T17:02:21;92201.28;;;10.48
40968;BMP280;57377;45.130;6.038;2023-04-15T17:04:46;92205.91;;;10.51
40968;BMP280;57377;45.130;6.038;2023-04-15T17:07:12;92209.78;;;10.40
40968;BMP280;57377;45.130;6.038;2023-04-15T17:09:38;92214.03;;;10.36
40968;BMP280;57377;45.130;6.038;2023-04-15T17:12:06;92211.03;;;10.29
40968;BMP280;57377;45.130;6.038;2023-04-15T17:14:32;92219.91;;;10.28
40968;BMP280;57377;45.130;6.038;2023-04-15T17:16:58;92221.38;;;10.07
40968;BMP280;57377;45.130;6.038;2023-04-15T17:19:23;92229.91;;;10.34
40968;BMP280;57377;45.130;6.038;2023-04-15T17:21:50;92234.47;;;10.02
40968;BMP280;57377;45.130;6.038;2023-04-15T17:24:16;92245.13;;;10.27
40968;BMP280;57377;45.130;6.038;2023-04-15T17:26:42;92243.50;;;10.05
40968;BMP280;57377;45.130;6.038;2023-04-15T17:29:08;92242.75;;;10.04
40968;BMP280;57377;45.130;6.038;2023-04-15T17:31:33;92238.97;;;10.24
40968;BMP280;57377;45.130;6.038;2023-04-15T17:33:59;92258.88;;;9.75
40968;BMP280;57377;45.130;6.038;2023-04-15T17:36:50;92252.19;;;10.14
40968;BMP280;57377;45.130;6.038;2023-04-15T17:39:17;92252.31;;;9.51
40968;BMP280;57377;45.130;6.038;2023-04-15T17:41:43;92263.75;;;9.63
40968;BMP280;57377;45.130;6.038;2023-04-15T17:44:08;92267.38;;;9.93
40968;BMP280;57377;45.130;6.038;2023-04-15T17:46:33;92262.25;;;9.89
40968;BMP280;57377;45.130;6.038;2023-04-15T17:48:59;92261.88;;;9.95
40968;BMP280;57377;45.130;6.038;2023-04-15T17:51:24;92263.91;;;10.24
40968;BMP280;57377;45.130;6.038;2023-04-15T17:53:50;92275.06;;;9.98
40968;BMP280;57377;45.130;6.038;2023-04-15T17:56:15;92272.50;;;9.54
40968;BMP280;57377;45.130;6.038;2023-04-15T17:58:42;92284.06;;;9.74
40968;BMP280;57377;45.130;6.038;2023-04-15T18:01:07;92286.34;;;9.62
40968;BMP280;57377;45.130;6.038;2023-04-15T18:03:33;92293.69;;;9.74
40968;BMP280;57377;45.130;6.038;2023-04-15T18:05:58;92296.66;;;9.99
40968;BMP280;57377;45.130;6.038;2023-04-15T18:08:25;92298.38;;;9.90
40968;BMP280;57377;45.130;6.038;2023-04-15T18:10:50;92303.03;;;9.43
40968;BMP280;57377;45.130;6.038;2023-04-15T18:13:16;92299.28;;;9.81
40968;BMP280;57377;45.130;6.038;2023-04-15T18:15:41;92298.97;;;10.14
40968;BMP280;57377;45.130;6.038;2023-04-15T18:18:07;92289.25;;;10.32
40968;BMP280;57377;45.130;6.038;2023-04-15T18:20:33;92294.34;;;10.24
40968;BMP280;57377;45.130;6.038;2023-04-15T18:22:58;92308.75;;;10.03